Time;durP1;ratioP1;P1;durP2;ratioP2;P2;SDS_P1;SDS_P2;PMS_P1;PMS_P2;Temp;Humidity;BMP_temperature;BMP_pressure;BME280_temperature;BME280_humidity;BME280_pressure;Samples;Min_cycle;Max_cycle;Signal;HPM_P1;HPM_P2
2021/09/01 00:00:33;;;;;;;4.90;4.40;;;;;;;12.74;81.05;97160.45;116221;1181;59502;-65
2021/09/01 00:03:04;;;;;;;6.90;5.50;;;;;;;12.81;80.40;97155.91;116224;1182;71385;-65
2021/09/01 00:05:34;;;;;;;5.70;4.10;;;;;;;12.81;80.31;97144.51;116263;1182;69185;-66
2021/09/01 00:08:04;;;;;;;6.50;5.90;;;;;;;12.83;80.41;97140.48;116238;1181;69259;-65
2021/09/01 00:10:35;;;;;;;4.90;4.40;;;;;;;12.80;80.73;97148.78;116197;1183;59546;-66
2021/09/01 00:13:04;;;;;;;;;;;;;;;12.80;80.67;97147.76;116279;1182;59562;-66
2021/09/01 00:15:34;;;;;;;7.50;6.60;;;;;;;12.76;80.97;97145.78;116310;1182;71398;-68
2021/09/01 00:18:04;;;;;;;6.80;6.00;;;;;;;12.76;80.63;97151.27;116201;1182;69112;-67
2021/09/01 00:20:34;;;;;;;6.70;5.50;;;;;;;12.76;80.70;97149.86;116184;1183;68089;-65
2021/09/01 00:23:05;;;;;;;5.10;4.60;;;;;;;12.79;80.15;97142.48;116254;1181;59550;-66
2021/09/01 00:25:34;;;;;;;;;;;;;;;12.82;79.79;97139.04;116232;1180;59491;-66
2021/09/01 00:28:04;;;;;;;4.30;3.90;;;;;;;12.84;80.07;97139.73;116228;1183;70543;-68
2021/09/01 00:30:34;;;;;;;5.00;4.10;;;;;;;12.83;80.15;97132.66;116206;1182;69264;-66
2021/09/01 00:33:04;;;;;;;3.90;3.50;;;;;;;12.81;79.77;97134.40;116180;1181;69351;-68
2021/09/01 00:35:34;;;;;;;6.00;4.00;;;;;;;12.81;80.16;97135.48;116276;1182;59554;-66
2021/09/01 00:38:03;;;;;;;4.30;3.90;;;;;;;12.81;79.62;97125.98;116250;1178;59511;-66
2021/09/01 00:40:34;;;;;;;4.30;3.80;;;;;;;12.81;79.50;97120.73;116298;1181;70222;-67
2021/09/01 00:43:04;;;;;;;;;;;;;;;12.82;79.56;97119.47;116242;1181;68565;-66
2021/09/01 00:45:35;;;;;;;5.40;4.90;;;;;;;12.82;79.21;97116.27;116268;1182;69226;-65
2021/09/01 00:48:05;;;;;;;7.00;4.60;;;;;;;12.83;79.16;97116.17;116193;1182;59536;-66
2021/09/01 00:50:35;;;;;;;4.60;3.70;;;;;;;12.83;79.18;97117.48;116191;1182;59530;-66
2021/09/01 00:53:06;;;;;;;4.40;4.00;;;;;;;12.84;78.73;97120.29;116250;1182;71377;-65
2021/09/01 00:55:37;;;;;;;4.70;4.20;;;;;;;12.84;78.88;97116.84;116203;1182;68316;-65
2021/09/01 00:58:07;;;;;;;4.70;4.20;;;;;;;12.84;78.94;97115.77;116153;1179;68943;-66
2021/09/01 01:00:53;;;;;;;4.20;3.80;;;;;;;12.82;78.88;97114.88;116222;1178;59589;-66
2021/09/01 01:03:24;;;;;;;4.10;3.70;;;;;;;12.80;78.60;97114.70;116359;1182;59532;-67
2021/09/01 01:05:55;;;;;;;;;;;;;;;12.77;78.62;97105.90;116349;1182;70558;-65
2021/09/01 01:08:30;;;;;;;4.00;3.60;;;;;;;12.75;78.59;97104.80;116162;1183;68409;-65
2021/09/01 01:11:00;;;;;;;4.70;4.20;;;;;;;12.70;78.87;97105.23;116312;1183;69240;-66
2021/09/01 01:13:32;;;;;;;4.90;4.40;;;;;;;12.68;79.03;97109.45;116332;1179;59531;-66
2021/09/01 01:16:03;;;;;;;4.50;4.10;;;;;;;12.62;79.32;97102.94;116268;1182;59514;-65
2021/09/01 01:18:32;;;;;;;;;;;;;;;12.58;79.19;97100.88;116238;1182;71049;-65
2021/09/01 01:21:03;;;;;;;5.50;4.40;;;;;;;12.48;80.19;97101.19;116274;1179;68437;-67
2021/09/01 01:23:33;;;;;;;4.60;4.00;;;;;;;12.41;80.16;97102.81;116195;1182;68388;-65
2021/09/01 01:26:04;;;;;;;6.50;5.00;;;;;;;12.32;80.30;97104.98;116223;1179;59568;-66
2021/09/01 01:28:33;;;;;;;6.60;6.00;;;;;;;12.23;80.97;97102.77;116218;1180;59529;-67
2021/09/01 01:31:03;;;;;;;;;;;;;;;12.16;81.01;97104.75;116170;1182;71284;-65
2021/09/01 01:33:33;;;;;;;6.70;5.20;;;;;;;12.11;80.75;97102.08;116249;1181;69314;-65
2021/09/01 01:36:04;;;;;;;5.90;5.30;;;;;;;12.04;80.75;97102.86;116240;1181;68638;-65
2021/09/01 01:38:34;;;;;;;4.10;3.80;;;;;;;11.98;80.53;97099.69;116268;1181;59539;-65
2021/09/01 01:41:05;;;;;;;5.00;3.70;;;;;;;11.92;80.32;97091.92;116263;1179;59536;-67
2021/09/01 01:43:37;;;;;;;5.90;4.80;;;;;;;11.88;80.24;97089.70;116204;1178;71345;-64
2021/09/01 01:46:07;;;;;;;5.20;4.60;;;;;;;11.86;80.40;97081.63;116243;1181;69172;-66
2021/09/01 01:48:38;;;;;;;4.90;4.20;;;;;;;11.84;80.86;97082.52;116273;1181;68400;-69
2021/09/01 01:51:08;;;;;;;5.40;4.80;;;;;;;11.82;80.79;97077.26;116249;1182;59562;-67
2021/09/01 01:53:39;;;;;;;4.50;3.90;;;;;;;11.79;80.79;97076.05;116331;1181;59588;-65
2021/09/01 01:56:10;;;;;;;;;;;;;;;11.78;80.39;97071.15;116240;1182;71133;-67
2021/09/01 01:58:40;;;;;;;4.60;4.20;;;;;;;11.76;80.88;97064.80;116278;1182;69251;-64
2021/09/01 02:01:11;;;;;;;6.90;5.80;;;;;;;11.74;81.42;97068.42;116177;1182;68406;-66
2021/09/01 02:03:42;;;;;;;4.80;4.00;;;;;;;11.66;82.23;97070.34;116239;1180;59558;-67
2021/09/01 02:06:12;;;;;;;;;;;;;;;11.61;81.62;97063.20;116267;1181;59511;-65
2021/09/01 02:08:43;;;;;;;5.00;4.50;;;;;;;11.54;81.79;97064.16;116264;1181;70459;-65
2021/09/01 02:11:13;;;;;;;5.60;4.60;;;;;;;11.48;81.34;97058.72;116242;1182;68277;-65
2021/09/01 02:13:44;;;;;;;5.40;4.40;;;;;;;11.40;82.47;97050.84;116250;1181;68417;-65
2021/09/01 02:16:15;;;;;;;4.70;4.20;;;;;;;11.34;81.66;97045.73;116051;1183;59572;-68
2021/09/01 02:18:47;;;;;;;3.90;3.50;;;;;;;11.30;81.74;97043.41;116235;1182;59534;-68
2021/09/01 02:21:18;;;;;;;4.00;3.50;;;;;;;11.28;80.88;97035.27;116267;1182;71355;-64
2021/09/01 02:23:48;;;;;;;6.70;6.00;;;;;;;11.28;81.28;97030.86;116280;1184;68756;-66
2021/09/01 02:26:18;;;;;;;5.80;5.30;;;;;;;11.30;81.70;97035.62;116199;1182;69186;-68
2021/09/01 02:28:48;;;;;;;5.70;5.00;;;;;;;11.30;82.46;97032.66;116145;1182;59892;-65
2021/09/01 02:31:18;;;;;;;5.90;5.30;;;;;;;11.29;81.87;97024.89;116271;1180;59523;-65
2021/09/01 02:33:48;;;;;;;6.40;5.70;;;;;;;11.30;81.89;97024.57;116288;1182;71346;-66
2021/09/01 02:36:20;;;;;;;6.70;6.00;;;;;;;11.39;82.60;97022.48;116234;1184;68284;-66
2021/09/01 02:38:50;;;;;;;5.80;5.20;;;;;;;11.44;82.59;97017.85;116129;1184;69108;-65
2021/09/01 02:41:22;;;;;;;5.90;5.30;;;;;;;11.49;82.61;97021.27;116167;1182;59537;-69
2021/09/01 02:43:53;;;;;;;6.20;5.60;;;;;;;11.53;82.64;97018.55;116237;1181;59524;-65
2021/09/01 02:46:24;;;;;;;5.70;5.10;;;;;;;11.56;82.64;97016.52;116224;1181;71077;-67
2021/09/01 02:48:54;;;;;;;6.20;5.60;;;;;;;11.59;82.65;97015.23;116234;1181;69615;-66
2021/09/01 02:51:26;;;;;;;5.50;4.90;;;;;;;11.61;82.55;97014.05;116246;1181;68459;-65
2021/09/01 02:53:56;;;;;;;7.40;6.30;;;;;;;11.65;82.54;97015.80;116241;1179;59524;-65
2021/09/01 02:56:26;;;;;;;6.50;5.80;;;;;;;11.67;82.48;97013.20;116240;1182;59496;-65
2021/09/01 02:58:57;;;;;;;7.20;5.60;;;;;;;11.68;82.71;97016.54;116237;1182;71379;-65
2021/09/01 03:01:27;;;;;;;6.50;5.90;;;;;;;11.69;82.50;97014.70;116221;1181;68956;-66
2021/09/01 03:03:59;;;;;;;8.40;7.00;;;;;;;11.69;82.31;97017.34;116210;1183;68630;-65
2021/09/01 03:06:29;;;;;;;6.20;5.60;;;;;;;11.70;82.31;97022.87;116198;1181;59594;-65
2021/09/01 03:08:59;;;;;;;;;;;;;;;11.71;82.24;97021.93;116167;1179;59596;-65
2021/09/01 03:11:29;;;;;;;6.40;5.70;;;;;;;11.70;82.71;97023.23;116235;1181;71255;-68
2021/09/01 03:13:58;;;;;;;7.40;6.00;;;;;;;11.68;83.43;97024.05;116241;1181;69142;-65
2021/09/01 03:16:29;;;;;;;5.60;5.10;;;;;;;11.70;82.75;97024.44;116158;1181;68424;-67
2021/09/01 03:19:00;;;;;;;8.20;7.30;;;;;;;11.71;82.74;97022.73;116217;1182;59582;-65
2021/09/01 03:21:30;;;;;;;7.00;6.30;;;;;;;11.71;82.83;97022.73;116267;1179;59545;-66
2021/09/01 03:24:00;;;;;;;7.90;6.40;;;;;;;11.76;82.37;97025.67;116300;1182;70419;-65
2021/09/01 03:26:32;;;;;;;7.60;6.90;;;;;;;11.77;82.39;97027.23;116208;1179;69133;-65
2021/09/01 03:29:02;;;;;;;7.50;6.80;;;;;;;11.81;82.42;97026.49;116192;1181;68542;-66
2021/09/01 03:31:33;;;;;;;8.80;8.00;;;;;;;11.82;82.36;97026.60;116204;1182;59604;-71
2021/09/01 03:34:03;;;;;;;8.10;7.30;;;;;;;11.80;83.29;97029.91;116282;1179;59508;-67
2021/09/01 03:36:33;;;;;;;9.40;8.40;;;;;;;11.80;83.93;97029.02;116248;1181;71341;-67
2021/09/01 03:39:04;;;;;;;7.40;6.70;;;;;;;11.81;83.68;97033.82;116159;1181;68400;-68
2021/09/01 03:41:34;;;;;;;7.50;6.20;;;;;;;11.82;83.07;97028.32;116270;1181;69222;-66
2021/09/01 03:44:04;;;;;;;8.20;7.40;;;;;;;11.86;82.51;97027.29;116172;1183;59555;-64
2021/09/01 03:46:34;;;;;;;7.90;7.20;;;;;;;11.90;82.93;97025.73;116206;1179;59487;-65
2021/09/01 03:49:04;;;;;;;6.50;5.80;;;;;;;11.93;82.46;97025.35;116153;1181;70395;-68
2021/09/01 03:51:35;;;;;;;7.50;5.90;;;;;;;11.96;82.48;97025.58;116345;1179;68951;-66
2021/09/01 03:54:05;;;;;;;;;;;;;;;11.99;82.82;97027.26;116368;1181;68413;-65
2021/09/01 03:56:34;;;;;;;7.90;6.40;;;;;;;12.03;82.52;97026.92;116258;1179;59541;-65
2021/09/01 03:59:04;;;;;;;;;;;;;;;12.08;82.07;97030.91;116121;1184;59605;-65
2021/09/01 04:01:36;;;;;;;8.30;7.40;;;;;;;12.13;82.09;97029.56;116363;1182;69570;-67
2021/09/01 04:04:07;;;;;;;6.60;5.40;;;;;;;12.18;82.11;97029.83;116191;1181;69240;-65
2021/09/01 04:06:36;;;;;;;8.80;7.90;;;;;;;12.21;82.16;97029.00;116202;1178;68365;-67
2021/09/01 04:09:06;;;;;;;9.80;8.80;;;;;;;12.27;82.15;97032.39;116232;1181;59538;-67
2021/09/01 04:11:35;;;;;;;6.70;6.10;;;;;;;12.30;82.94;97034.09;116316;1178;59569;-66
2021/09/01 04:14:05;;;;;;;;;;;;;;;12.34;82.96;97032.64;116313;1181;71255;-67
2021/09/01 04:16:34;;;;;;;11.30;9.90;;;;;;;12.36;82.84;97036.17;116563;1177;69217;-65
2021/09/01 04:19:04;;;;;;;12.60;11.30;;;;;;;12.36;83.16;97038.27;116229;1181;69316;-68
2021/09/01 04:21:33;;;;;;;12.90;11.50;;;;;;;12.38;83.18;97036.31;116228;1182;59511;-67
2021/09/01 04:24:04;;;;;;;13.20;11.40;;;;;;;12.48;82.95;97036.64;116300;1179;59530;-68
2021/09/01 04:26:33;;;;;;;13.00;10.40;;;;;;;12.51;82.97;97038.60;116235;1181;70548;-68
2021/09/01 04:29:03;;;;;;;10.40;9.40;;;;;;;12.52;82.95;97040.71;116154;1181;69354;-66
2021/09/01 04:31:32;;;;;;;12.50;11.20;;;;;;;12.57;83.05;97044.34;116184;1181;69078;-68
2021/09/01 04:34:03;;;;;;;13.00;11.20;;;;;;;12.60;82.81;97048.58;116210;1181;59613;-67
2021/09/01 04:36:32;;;;;;;12.10;10.90;;;;;;;12.63;83.17;97048.89;116511;1181;59517;-69
2021/09/01 04:39:01;;;;;;;11.80;10.60;;;;;;;12.66;82.98;97054.36;116452;1181;71362;-68
2021/09/01 04:41:31;;;;;;;12.90;11.60;;;;;;;12.69;83.19;97057.41;116332;1179;69210;-68
2021/09/01 04:44:00;;;;;;;11.70;10.10;;;;;;;12.70;83.45;97059.39;116385;1179;69200;-66
2021/09/01 04:46:29;;;;;;;10.40;9.30;;;;;;;12.72;83.59;97056.31;116420;1178;59558;-68
2021/09/01 04:48:59;;;;;;;11.40;9.60;;;;;;;12.71;83.73;97060.23;116454;1182;59602;-69
2021/09/01 04:51:28;;;;;;;14.90;12.80;;;;;;;12.71;83.95;97060.59;116305;1182;71135;-68
2021/09/01 04:53:57;;;;;;;12.40;11.10;;;;;;;12.69;84.50;97062.16;116203;1182;68967;-67
2021/09/01 04:56:27;;;;;;;14.70;12.80;;;;;;;12.69;84.61;97066.00;116178;1182;68571;-66
2021/09/01 04:58:56;;;;;;;13.90;11.30;;;;;;;12.70;84.82;97066.27;116167;1178;59540;-66
2021/09/01 05:01:25;;;;;;;14.00;12.50;;;;;;;12.69;84.87;97068.08;116262;1181;59540;-67
2021/09/01 05:03:55;;;;;;;;;;;;;;;12.69;84.98;97065.61;116274;1181;71124;-67
2021/09/01 05:06:27;;;;;;;13.80;11.80;;;;;;;12.69;85.27;97065.14;116401;1181;68452;-68
2021/09/01 05:08:56;;;;;;;11.80;10.60;;;;;;;12.69;84.81;97065.09;116433;1181;69338;-68
2021/09/01 05:11:25;;;;;;;15.80;12.70;;;;;;;12.71;84.98;97064.42;116408;1178;59631;-69
2021/09/01 05:13:54;;;;;;;9.90;8.90;;;;;;;12.73;84.85;97062.14;116405;1178;59558;-69
2021/09/01 05:16:24;;;;;;;10.20;8.90;;;;;;;12.76;84.78;97065.90;116360;1181;69577;-69
2021/09/01 05:18:53;;;;;;;14.70;12.40;;;;;;;12.72;85.05;97069.55;116381;1181;68408;-69
2021/09/01 05:21:26;;;;;;;13.60;11.80;;;;;;;12.71;85.43;97072.30;116305;1181;68319;-67
2021/09/01 05:23:56;;;;;;;15.00;12.10;;;;;;;12.72;85.22;97072.52;116410;1179;59544;-69
2021/09/01 05:26:31;;;;;;;13.60;11.40;;;;;;;12.64;85.81;97076.61;116462;1181;59594;-69
2021/09/01 05:29:03;;;;;;;12.10;10.80;;;;;;;12.66;86.19;97077.82;116427;1181;70587;-69
2021/09/01 05:31:32;;;;;;;10.70;9.30;;;;;;;12.68;85.99;97080.61;116455;1181;69158;-69
2021/09/01 05:34:03;;;;;;;12.70;11.10;;;;;;;12.69;86.00;97085.05;116520;1179;68709;-67
2021/09/01 05:36:33;;;;;;;19.50;14.60;;;;;;;12.68;86.30;97079.19;116369;1182;59586;-69
2021/09/01 05:39:02;;;;;;;15.40;13.70;;;;;;;12.68;86.08;97082.88;116558;1176;59558;-68
2021/09/01 05:41:31;;;;;;;14.30;10.80;;;;;;;12.69;85.90;97078.95;116349;1179;71171;-69
2021/09/01 05:44:01;;;;;;;12.90;11.30;;;;;;;12.70;86.08;97074.84;116374;1178;69244;-68
2021/09/01 05:46:31;;;;;;;16.60;14.30;;;;;;;12.69;86.34;97071.23;116170;1181;68463;-68
2021/09/01 05:49:01;;;;;;;18.00;15.50;;;;;;;12.63;86.75;97070.50;116217;1181;59560;-66
2021/09/01 05:51:31;;;;;;;18.20;15.70;;;;;;;12.61;87.46;97070.88;116316;1181;59524;-69
2021/09/01 05:54:00;;;;;;;19.80;15.00;;;;;;;12.54;87.69;97069.23;116110;1182;70550;-68
2021/09/01 05:56:34;;;;;;;15.10;11.90;;;;;;;12.58;87.72;97073.63;116270;1181;68975;-69
2021/09/01 05:59:11;;;;;;;22.80;17.20;;;;;;;12.64;86.94;97071.52;116413;1181;69253;-70
2021/09/01 06:01:44;;;;;;;23.10;16.60;;;;;;;12.58;87.84;97070.29;116393;1179;59495;-68
2021/09/01 06:04:17;;;;;;;23.50;17.40;;;;;;;12.60;88.33;97073.80;116451;1181;59615;-66
2021/09/01 06:06:49;;;;;;;19.80;15.60;;;;;;;12.59;88.56;97075.59;116388;1182;71420;-67
2021/09/01 06:09:19;;;;;;;22.40;17.70;;;;;;;12.65;88.47;97078.77;116529;1181;69029;-72
2021/09/01 06:11:52;;;;;;;20.60;17.20;;;;;;;12.61;88.76;97078.20;116326;1178;69264;-71
2021/09/01 06:14:21;;;;;;;22.00;17.10;;;;;;;12.60;88.66;97081.26;116387;1181;59533;-67
2021/09/01 06:16:51;;;;;;;20.00;16.10;;;;;;;12.59;89.11;97081.53;116417;1181;58736;-68
2021/09/01 06:19:20;;;;;;;14.90;11.30;;;;;;;12.68;88.68;97078.14;116297;1185;71451;-66
2021/09/01 06:21:49;;;;;;;17.30;14.60;;;;;;;12.79;88.07;97080.88;116452;1180;69232;-69
2021/09/01 06:24:18;;;;;;;21.50;17.00;;;;;;;12.81;88.18;97078.59;116397;1181;69396;-69
2021/09/01 06:26:47;;;;;;;20.10;16.40;;;;;;;12.84;88.25;97080.48;116170;1179;59568;-72
2021/09/01 06:29:16;;;;;;;20.00;15.40;;;;;;;12.84;88.23;97081.27;116397;1179;59532;-69
2021/09/01 06:31:45;;;;;;;18.60;14.60;;;;;;;12.87;88.21;97081.02;116452;1181;71199;-70
2021/09/01 06:34:14;;;;;;;15.30;12.50;;;;;;;12.90;87.62;97083.20;116384;1177;68979;-72
2021/09/01 06:36:43;;;;;;;20.20;16.70;;;;;;;12.98;87.54;97082.89;116368;1176;68520;-66
2021/09/01 06:39:13;;;;;;;17.00;13.20;;;;;;;12.95;87.33;97085.20;116349;1181;59647;-68
2021/09/01 06:41:41;;;;;;;14.50;12.80;;;;;;;13.01;87.07;97089.28;116354;1178;59461;-68
2021/09/01 06:44:11;;;;;;;13.60;11.20;;;;;;;12.97;86.58;97086.84;116415;1181;71344;-67
2021/09/01 06:46:40;;;;;;;14.00;11.60;;;;;;;13.00;86.36;97084.80;116432;1181;68420;-68
2021/09/01 06:49:09;;;;;;;14.00;12.10;;;;;;;13.04;86.47;97087.63;116314;1181;69327;-67
2021/09/01 06:51:38;;;;;;;13.00;10.50;;;;;;;13.04;86.47;97090.79;116338;1181;59534;-69
2021/09/01 06:54:06;;;;;;;12.30;10.60;;;;;;;13.08;86.22;97092.84;116333;1180;59975;-69
2021/09/01 06:56:35;;;;;;;13.60;11.60;;;;;;;13.09;86.37;97102.05;116290;1182;71393;-67
2021/09/01 06:59:04;;;;;;;15.00;12.80;;;;;;;13.02;86.64;97102.13;116346;1178;69152;-69
2021/09/01 07:01:33;;;;;;;14.90;12.40;;;;;;;12.94;86.88;97105.61;116295;1179;69754;-69
2021/09/01 07:04:03;;;;;;;13.80;11.90;;;;;;;12.93;87.28;97110.23;116356;1181;59524;-69
2021/09/01 07:06:32;;;;;;;12.00;10.80;;;;;;;12.91;87.21;97110.45;116401;1181;59485;-77
2021/09/01 07:09:01;;;;;;;9.90;8.50;;;;;;;12.97;86.90;97111.29;116272;1181;70444;-70
2021/09/01 07:11:30;;;;;;;13.60;10.70;;;;;;;13.02;87.01;97118.73;116319;1181;69158;-67
2021/09/01 07:13:58;;;;;;;12.40;9.70;;;;;;;13.06;86.81;97121.06;116347;1181;69274;-68
2021/09/01 07:16:27;;;;;;;11.00;8.60;;;;;;;13.04;87.09;97123.82;116294;1177;59567;-67
2021/09/01 07:18:57;;;;;;;11.30;9.60;;;;;;;13.07;87.04;97125.31;116325;1179;59509;-69
2021/09/01 07:21:26;;;;;;;12.60;8.90;;;;;;;13.07;87.03;97125.79;116335;1181;71299;-68
2021/09/01 07:23:56;;;;;;;11.00;9.60;;;;;;;13.07;87.41;97130.91;116477;1181;68462;-68
2021/09/01 07:26:25;;;;;;;8.60;6.40;;;;;;;13.00;87.16;97130.83;116368;1181;69873;-68
2021/09/01 07:28:53;;;;;;;8.00;6.90;;;;;;;13.06;86.99;97133.41;116345;1178;59552;-68
2021/09/01 07:31:22;;;;;;;7.30;5.30;;;;;;;13.09;87.06;97131.45;116368;1181;59513;-68
2021/09/01 07:33:51;;;;;;;6.30;5.30;;;;;;;13.12;86.92;97136.38;116401;1181;71392;-70
2021/09/01 07:36:21;;;;;;;5.70;4.40;;;;;;;13.12;86.93;97139.52;116319;1181;68672;-68
2021/09/01 07:38:50;;;;;;;6.00;4.60;;;;;;;13.22;86.34;97141.11;116376;1181;69183;-69
2021/09/01 07:41:19;;;;;;;5.00;4.30;;;;;;;13.25;86.28;97134.23;116405;1181;59541;-69
2021/09/01 07:43:47;;;;;;;4.40;3.00;;;;;;;13.27;86.29;97137.26;116397;1179;59940;-69
2021/09/01 07:46:16;;;;;;;3.40;2.80;;;;;;;13.23;85.97;97139.64;116378;1181;70646;-67
2021/09/01 07:48:45;;;;;;;3.30;2.30;;;;;;;13.19;85.90;97144.22;116402;1181;69299;-70
2021/09/01 07:51:14;;;;;;;5.50;3.50;;;;;;;13.28;86.47;97137.02;116314;1181;69345;-70
2021/09/01 07:53:45;;;;;;;4.80;2.60;;;;;;;13.32;86.92;97143.42;116317;1177;59543;-68
2021/09/01 07:56:14;;;;;;;3.40;2.50;;;;;;;13.34;86.61;97143.59;116268;1178;59551;-69
2021/09/01 07:58:42;;;;;;;3.60;2.50;;;;;;;13.38;86.52;97146.59;116315;1181;71356;-69
2021/09/01 08:01:11;;;;;;;4.00;2.50;;;;;;;13.44;86.14;97146.80;116402;1178;69009;-71
2021/09/01 08:03:41;;;;;;;2.20;2.00;;;;;;;13.48;86.18;97141.88;116310;1181;69086;-71
2021/09/01 08:06:10;;;;;;;4.20;3.30;;;;;;;13.61;86.19;97147.73;116391;1176;59515;-69
2021/09/01 08:08:39;;;;;;;4.80;2.50;;;;;;;13.65;86.07;97143.28;116422;1182;59527;-68
2021/09/01 08:11:08;;;;;;;3.90;2.50;;;;;;;13.69;85.24;97149.09;116336;1179;72029;-68
2021/09/01 08:13:37;;;;;;;3.50;2.50;;;;;;;13.75;85.26;97147.79;116362;1181;68337;-70
2021/09/01 08:16:08;;;;;;;4.50;2.60;;;;;;;13.79;85.22;97152.35;116410;1176;69038;-70
2021/09/01 08:18:37;;;;;;;3.80;2.70;;;;;;;13.80;84.64;97154.94;116403;1181;59524;-67
2021/09/01 08:21:06;;;;;;;3.70;2.70;;;;;;;13.81;85.32;97156.42;116380;1179;59454;-70
2021/09/01 08:23:35;;;;;;;3.10;2.50;;;;;;;13.88;85.00;97156.45;116280;1181;70436;-68
2021/09/01 08:26:03;;;;;;;4.30;2.80;;;;;;;14.03;84.63;97157.74;116384;1181;69331;-69
2021/09/01 08:28:32;;;;;;;3.90;2.40;;;;;;;14.12;84.51;97157.41;116341;1181;68317;-67
2021/09/01 08:31:01;;;;;;;3.50;2.20;;;;;;;14.18;83.94;97162.88;116467;1176;59553;-70
2021/09/01 08:33:30;;;;;;;3.10;2.30;;;;;;;14.19;83.86;97158.67;116455;1178;59527;-67
2021/09/01 08:35:59;;;;;;;3.40;2.30;;;;;;;14.28;83.69;97159.27;116367;1181;71449;-71
2021/09/01 08:38:28;;;;;;;2.90;2.50;;;;;;;14.32;83.33;97167.88;116312;1181;69177;-68
2021/09/01 08:40:57;;;;;;;3.60;2.30;;;;;;;14.27;83.17;97166.36;116410;1181;68475;-67
2021/09/01 08:43:26;;;;;;;3.00;2.00;;;;;;;14.38;83.01;97169.39;116409;1181;59548;-68
2021/09/01 08:45:55;;;;;;;4.80;2.80;;;;;;;14.45;82.98;97170.17;116426;1182;59557;-68
2021/09/01 08:48:25;;;;;;;5.50;3.90;;;;;;;14.39;83.29;97171.33;116360;1181;70379;-67
2021/09/01 08:50:54;;;;;;;7.10;5.60;;;;;;;14.40;84.10;97174.00;116436;1181;68435;-67
2021/09/01 08:53:23;;;;;;;14.50;11.60;;;;;;;14.41;84.40;97171.77;116258;1182;69545;-68
2021/09/01 08:55:52;;;;;;;15.20;12.20;;;;;;;14.32;84.71;97177.66;116229;1183;59466;-68
2021/09/01 08:58:21;;;;;;;19.10;14.00;;;;;;;14.21;84.99;97180.23;116391;1180;59531;-69
2021/09/01 09:00:50;;;;;;;16.20;13.30;;;;;;;14.15;85.78;97182.72;116445;1179;71441;-68
2021/09/01 09:03:19;;;;;;;16.70;14.50;;;;;;;14.20;85.75;97184.05;116402;1178;69111;-68
2021/09/01 09:05:50;;;;;;;15.40;13.40;;;;;;;14.17;85.61;97184.66;116292;1182;69191;-69
2021/09/01 09:08:19;;;;;;;14.30;12.20;;;;;;;14.25;85.40;97186.06;116220;1179;59551;-69
2021/09/01 09:10:48;;;;;;;14.60;12.60;;;;;;;14.22;84.57;97188.98;116401;1178;59607;-69
2021/09/01 09:13:28;;;;;;;14.50;12.00;;;;;;;14.28;84.65;97189.80;116350;1179;71077;-68
2021/09/01 09:16:09;;;;;;;16.00;13.40;;;;;;;14.26;84.79;97186.45;116412;1181;68422;-66
2021/09/01 09:18:40;;;;;;;18.10;13.80;;;;;;;14.27;84.63;97184.98;116352;1179;68478;-68
2021/09/01 09:21:18;;;;;;;13.80;12.30;;;;;;;14.35;85.01;97186.33;116395;1179;59505;-68
2021/09/01 09:23:50;;;;;;;17.00;13.60;;;;;;;14.49;84.89;97189.08;116344;1180;59542;-68
2021/09/01 09:26:22;;;;;;;19.40;15.20;;;;;;;14.48;84.59;97191.48;116271;1181;71444;-68
2021/09/01 09:29:11;;;;;;;16.00;13.70;;;;;;;14.48;84.88;97185.52;116290;1181;68453;-69
2021/09/01 09:31:43;;;;;;;16.80;15.00;;;;;;;14.71;84.76;97183.27;116298;1180;68474;-69
2021/09/01 09:34:17;;;;;;;18.40;13.90;;;;;;;14.71;84.25;97186.41;116418;1176;59575;-69
2021/09/01 09:37:04;;;;;;;15.90;12.60;;;;;;;14.94;83.56;97181.11;116405;1181;59570;-68
2021/09/01 09:39:46;;;;;;;13.30;11.70;;;;;;;15.37;81.99;97181.17;116337;1181;71374;-71
2021/09/01 09:42:33;;;;;;;10.10;8.40;;;;;;;15.75;80.20;97181.39;116381;1181;68466;-67
2021/09/01 09:45:35;;;;;;;13.10;10.60;;;;;;;15.80;79.89;97180.11;116488;1181;68726;-67
2021/09/01 09:48:04;;;;;;;11.40;9.40;;;;;;;15.76;79.53;97183.55;116118;1179;59593;-71
2021/09/01 09:50:34;;;;;;;9.20;8.20;;;;;;;15.59;79.05;97175.77;116114;1185;59662;-67
2021/09/01 09:53:03;;;;;;;10.40;8.70;;;;;;;15.62;79.29;97177.05;116111;1185;69672;-69
2021/09/01 09:55:34;;;;;;;10.70;8.20;;;;;;;15.86;79.44;97175.45;116112;1182;68280;-69
2021/09/01 09:58:04;;;;;;;8.90;6.00;;;;;;;16.05;78.14;97180.22;116091;1184;69244;-68
2021/09/01 10:00:33;;;;;;;7.80;7.00;;;;;;;16.18;77.06;97178.78;116075;1182;59548;-68
2021/09/01 10:03:03;;;;;;;7.30;6.60;;;;;;;16.12;77.76;97174.45;116136;1183;59521;-69
2021/09/01 10:05:33;;;;;;;;;;;;;;;15.82;78.24;97169.14;116131;1185;70541;-69
2021/09/01 10:08:02;;;;;;;9.30;8.20;;;;;;;15.83;78.07;97169.45;116126;1184;68575;-69
2021/09/01 10:10:31;;;;;;;8.50;7.60;;;;;;;15.79;77.72;97168.95;116072;1184;68698;-70
2021/09/01 10:13:00;;;;;;;8.30;7.40;;;;;;;15.60;77.96;97172.67;115958;1185;59646;-69
2021/09/01 10:15:32;;;;;;;11.50;8.00;;;;;;;15.53;78.49;97175.64;116147;1184;59622;-68
2021/09/01 10:18:05;;;;;;;8.70;6.60;;;;;;;15.54;78.62;97170.56;116031;1181;70421;-68
2021/09/01 10:20:41;;;;;;;8.60;7.40;;;;;;;15.67;78.34;97171.52;116091;1184;68786;-69
2021/09/01 10:23:11;;;;;;;7.90;6.70;;;;;;;15.85;77.54;97172.33;116101;1184;69322;-68
2021/09/01 10:25:42;;;;;;;7.90;6.80;;;;;;;16.23;76.65;97172.47;116344;1181;59479;-69
2021/09/01 10:28:23;;;;;;;7.50;6.00;;;;;;;16.81;75.35;97168.59;116406;1181;59504;-72
2021/09/01 10:31:13;;;;;;;7.00;6.00;;;;;;;17.48;72.85;97163.27;116407;1181;71151;-69
2021/09/01 10:33:48;;;;;;;7.40;6.30;;;;;;;17.73;69.44;97157.79;116277;1181;69196;-70
2021/09/01 10:36:25;;;;;;;6.70;5.60;;;;;;;17.86;69.64;97159.61;116342;1181;68239;-70
2021/09/01 10:38:57;;;;;;;7.40;5.10;;;;;;;17.79;70.92;97159.98;116295;1179;59524;-69
2021/09/01 10:41:33;;;;;;;7.90;4.90;;;;;;;17.84;69.66;97159.84;116375;1181;59558;-69
2021/09/01 10:44:13;;;;;;;6.70;4.60;;;;;;;17.38;70.16;97177.70;116258;1178;70964;-69
2021/09/01 10:46:51;;;;;;;6.30;5.00;;;;;;;17.19;71.18;97182.76;116207;1182;69133;-69
2021/09/01 10:49:26;;;;;;;3.60;2.50;;;;;;;16.79;73.35;97187.44;116262;1181;67946;-66
2021/09/01 10:52:02;;;;;;;2.00;1.40;;;;;;;16.82;73.67;97185.77;116376;1178;59530;-72
2021/09/01 10:54:35;;;;;;;3.10;2.00;;;;;;;16.80;73.81;97187.15;116279;1179;59566;-69
2021/09/01 10:57:06;;;;;;;4.60;3.10;;;;;;;16.88;74.06;97194.86;116310;1181;71157;-70
2021/09/01 10:59:39;;;;;;;3.90;2.70;;;;;;;17.20;73.78;97191.75;116326;1178;69068;-69
2021/09/01 11:02:14;;;;;;;2.90;2.30;;;;;;;17.56;73.46;97190.83;116288;1178;68550;-70
2021/09/01 11:04:49;;;;;;;3.90;2.70;;;;;;;18.00;72.86;97186.66;116281;1179;59555;-69
2021/09/01 11:07:27;;;;;;;2.90;2.60;;;;;;;18.31;72.15;97185.60;116302;1180;59543;-69
2021/09/01 11:10:01;;;;;;;3.70;2.90;;;;;;;18.48;70.47;97185.39;116308;1178;71339;-69
2021/09/01 11:12:33;;;;;;;3.70;2.80;;;;;;;18.53;68.95;97187.83;116271;1181;69431;-68
2021/09/01 11:15:03;;;;;;;3.30;2.40;;;;;;;18.58;69.43;97188.04;116303;1178;68946;-70
2021/09/01 11:17:33;;;;;;;3.50;2.70;;;;;;;18.59;69.40;97189.45;116274;1181;59517;-69
2021/09/01 11:20:03;;;;;;;4.00;2.70;;;;;;;18.52;68.45;97186.55;116300;1178;59906;-70
2021/09/01 11:22:36;;;;;;;5.00;3.20;;;;;;;18.45;68.88;97189.39;116334;1178;71175;-69
2021/09/01 11:25:14;;;;;;;3.80;3.10;;;;;;;18.31;67.02;97189.00;116366;1178;69127;-69
2021/09/01 11:27:53;;;;;;;3.40;2.80;;;;;;;18.27;68.13;97188.54;116301;1181;69066;-70
2021/09/01 11:30:21;;;;;;;3.50;3.00;;;;;;;18.38;67.66;97189.86;116303;1181;59543;-70
2021/09/01 11:32:55;;;;;;;3.70;2.80;;;;;;;18.42;66.27;97186.98;116302;1179;59546;-69
2021/09/01 11:35:27;;;;;;;4.00;2.90;;;;;;;18.44;66.29;97191.62;116271;1182;71476;-67
2021/09/01 11:38:15;;;;;;;4.40;3.20;;;;;;;18.57;66.64;97192.39;116262;1181;69139;-67
2021/09/01 11:40:48;;;;;;;4.70;3.60;;;;;;;18.78;67.07;97194.48;116167;1182;68412;-69